createdAt,value
2023-04-20T00:00:36.311Z,20.50
2023-04-20T00:03:21.839Z,17.20
2023-04-20T00:05:49.947Z,17.90
2023-04-20T00:08:17.628Z,18.10
2023-04-20T00:10:46.375Z,20.20
2023-04-20T00:13:14.052Z,20.40
2023-04-20T00:15:41.813Z,22.00
2023-04-20T00:18:09.732Z,20.70
2023-04-20T00:20:38.574Z,20.10
2023-04-20T00:23:07.789Z,19.80
2023-04-20T00:25:35.726Z,18.90
2023-04-20T00:28:03.677Z,20.90
2023-04-20T00:30:31.364Z,19.40
2023-04-20T00:32:59.088Z,19.80
2023-04-20T00:35:26.963Z,20.50
2023-04-20T00:37:54.635Z,19.10
2023-04-20T00:40:22.294Z,19.90
2023-04-20T00:42:49.929Z,20.90
2023-04-20T00:45:17.633Z,21.20
2023-04-20T00:47:46.409Z,20.60
2023-04-20T00:50:14.723Z,20.30
2023-04-20T00:52:42.750Z,21.40
2023-04-20T00:55:11.365Z,22.40
2023-04-20T00:57:39.292Z,22.60
2023-04-20T01:00:08.792Z,22.60
2023-04-20T01:02:36.592Z,21.00
2023-04-20T01:05:04.755Z,21.00
2023-04-20T01:07:32.560Z,21.40
2023-04-20T01:10:00.423Z,22.50
2023-04-20T01:12:28.071Z,21.50
2023-04-20T01:14:55.695Z,22.70
2023-04-20T01:17:24.229Z,24.10
2023-04-20T01:19:51.911Z,24.90
2023-04-20T01:22:21.367Z,21.20
2023-04-20T01:24:48.974Z,20.80
2023-04-20T01:27:17.234Z,20.40
2023-04-20T01:29:45.944Z,20.60
2023-04-20T01:32:13.850Z,22.80
2023-04-20T01:34:41.751Z,22.70
2023-04-20T01:37:09.794Z,26.60
2023-04-20T01:39:40.127Z,24.50
2023-04-20T01:42:08.143Z,23.80
2023-04-20T01:44:35.806Z,19.50
2023-04-20T01:47:03.684Z,21.80
2023-04-20T01:49:31.623Z,21.20
2023-04-20T01:51:59.263Z,21.20
2023-04-20T01:54:26.990Z,19.40
2023-04-20T01:56:54.923Z,19.70
2023-04-20T01:59:22.547Z,20.80
2023-04-20T02:01:50.279Z,22.80
2023-04-20T02:04:18.181Z,20.60
2023-04-20T02:06:46.006Z,20.00
2023-04-20T02:09:13.657Z,20.00
2023-04-20T02:11:41.376Z,20.70
2023-04-20T02:14:09.038Z,19.80
2023-04-20T02:16:37.572Z,18.20
2023-04-20T02:19:05.221Z,19.90
2023-04-20T02:21:32.941Z,17.70
2023-04-20T02:24:01.382Z,18.60
2023-04-20T02:26:29.048Z,18.70
2023-04-20T02:28:56.815Z,16.60
2023-04-20T02:31:24.531Z,18.00
2023-04-20T02:33:52.277Z,16.60
2023-04-20T02:36:19.947Z,17.10
2023-04-20T02:38:47.568Z,18.40
2023-04-20T02:41:15.280Z,17.10
2023-04-20T02:43:42.932Z,19.60
2023-04-20T02:46:10.585Z,17.20
2023-04-20T02:48:38.250Z,16.60
2023-04-20T02:51:05.964Z,17.30
2023-04-20T02:53:33.598Z,18.70
2023-04-20T02:56:01.291Z,18.70
2023-04-20T02:58:29.139Z,17.60
2023-04-20T03:01:01.316Z,16.50
2023-04-20T03:03:30.513Z,17.70
2023-04-20T03:05:58.743Z,18.30
2023-04-20T03:08:26.376Z,20.80
2023-04-20T03:10:54.134Z,17.10
2023-04-20T03:13:21.730Z,17.60
2023-04-20T03:15:49.461Z,18.50
2023-04-20T03:18:17.172Z,19.30
2023-04-20T03:20:44.849Z,18.30
2023-04-20T03:23:12.479Z,19.50
2023-04-20T03:25:40.255Z,17.70
2023-04-20T03:28:07.887Z,17.50
2023-04-20T03:30:35.725Z,18.60
2023-04-20T03:33:03.542Z,19.60
2023-04-20T03:35:31.534Z,16.00
2023-04-20T03:37:59.181Z,17.60
2023-04-20T03:40:27.158Z,18.30
2023-04-20T03:42:54.825Z,16.80
2023-04-20T03:45:22.512Z,20.10
2023-04-20T03:47:50.226Z,19.80
2023-04-20T03:50:17.943Z,19.50
2023-04-20T03:52:45.634Z,19.40
2023-04-20T03:55:13.271Z,17.90
2023-04-20T03:57:40.883Z,17.90
2023-04-20T04:00:10.948Z,23.80
2023-04-20T04:02:38.800Z,24.50
2023-04-20T04:05:08.180Z,25.50
2023-04-20T04:07:35.954Z,34.70
2023-04-20T04:10:05.779Z,32.00
2023-04-20T04:12:33.410Z,22.60
2023-04-20T04:15:01.197Z,20.60
2023-04-20T04:17:28.826Z,20.50
2023-04-20T04:19:56.513Z,26.60
2023-04-20T04:22:24.155Z,20.10
2023-04-20T04:24:51.818Z,17.90
2023-04-20T04:27:19.470Z,18.10
2023-04-20T04:29:47.294Z,16.10
2023-04-20T04:32:14.986Z,18.00
2023-04-20T04:34:44.737Z,18.30
2023-04-20T04:37:12.419Z,15.80
2023-04-20T04:39:40.311Z,16.80
2023-04-20T04:42:08.646Z,19.50
2023-04-20T04:44:37.535Z,17.50
2023-04-20T04:47:05.617Z,14.30
2023-04-20T04:49:33.219Z,15.80
2023-04-20T04:52:01.094Z,17.10
2023-04-20T04:54:28.943Z,17.80
2023-04-20T04:56:58.413Z,17.40
2023-04-20T04:59:26.094Z,17.80
2023-04-20T05:01:53.792Z,17.00
2023-04-20T05:04:21.640Z,16.60
2023-04-20T05:06:49.521Z,18.50
2023-04-20T05:09:17.379Z,15.60
2023-04-20T05:11:45.864Z,15.50
2023-04-20T05:14:13.528Z,18.20
2023-04-20T05:16:41.396Z,17.10
2023-04-20T05:19:09.194Z,18.60
2023-04-20T05:21:38.398Z,18.00
2023-04-20T05:24:06.686Z,17.90
2023-04-20T05:26:34.292Z,17.50
2023-04-20T05:29:02.443Z,17.10
2023-04-20T05:31:31.028Z,18.20
2023-04-20T05:33:59.238Z,17.50
2023-04-20T05:36:27.291Z,16.90
2023-04-20T05:38:55.662Z,16.40
2023-04-20T05:41:27.214Z,18.10
2023-04-20T05:43:56.946Z,17.90
2023-04-20T05:46:24.802Z,18.70
2023-04-20T05:48:52.574Z,16.20
2023-04-20T05:51:20.384Z,17.90
2023-04-20T05:53:48.268Z,18.00
2023-04-20T05:56:16.128Z,19.70
2023-04-20T05:58:43.945Z,19.10
2023-04-20T06:01:11.791Z,17.90
2023-04-20T06:03:39.823Z,17.00
2023-04-20T06:06:08.047Z,16.50
2023-04-20T06:08:35.793Z,19.70
2023-04-20T06:11:03.511Z,18.50
2023-04-20T06:13:31.410Z,19.90
2023-04-20T06:15:59.149Z,18.00
2023-04-20T06:18:27.009Z,20.50
2023-04-20T06:20:54.919Z,19.30
2023-04-20T06:23:22.762Z,24.30
2023-04-20T06:25:50.566Z,19.80
2023-04-20T06:28:18.280Z,19.00
2023-04-20T06:30:45.982Z,18.10
2023-04-20T06:33:17.223Z,16.80
2023-04-20T06:35:45.106Z,17.70
2023-04-20T06:38:12.787Z,15.20
2023-04-20T06:40:40.476Z,15.80
2023-04-20T06:43:08.104Z,16.90
2023-04-20T06:45:35.809Z,16.00
2023-04-20T06:48:03.679Z,17.90
2023-04-20T06:50:31.573Z,18.00
2023-04-20T06:52:59.697Z,17.10
2023-04-20T06:55:27.350Z,17.30
2023-04-20T06:57:55.005Z,16.70
2023-04-20T07:00:22.870Z,19.00
2023-04-20T07:02:51.606Z,17.40
2023-04-20T07:05:20.371Z,17.10
2023-04-20T07:07:48.144Z,19.20
2023-04-20T07:10:16.659Z,18.90
2023-04-20T07:12:44.471Z,17.50
2023-04-20T07:15:13.061Z,19.40
2023-04-20T07:17:41.152Z,17.30
2023-04-20T07:20:09.495Z,19.20
2023-04-20T07:22:39.086Z,17.90
2023-04-20T07:25:09.764Z,18.90
2023-04-20T07:27:40.153Z,19.90
2023-04-20T07:30:10.665Z,17.70
2023-04-20T07:32:41.624Z,19.50
2023-04-20T07:35:10.102Z,18.90
2023-04-20T07:37:37.774Z,16.50
2023-04-20T07:40:07.155Z,16.00
2023-04-20T07:42:36.991Z,17.40
2023-04-20T07:45:09.452Z,17.50
2023-04-20T07:47:37.869Z,17.80
2023-04-20T07:50:07.791Z,16.40
2023-04-20T07:52:35.930Z,17.60
2023-04-20T07:55:05.122Z,18.00
2023-04-20T07:57:32.788Z,16.90
2023-04-20T08:00:00.499Z,16.30
2023-04-20T08:02:28.400Z,15.20
2023-04-20T08:04:57.020Z,16.10
2023-04-20T08:07:25.182Z,15.20
2023-04-20T08:09:52.898Z,15.80
2023-04-20T08:12:20.559Z,16.50
2023-04-20T08:14:48.268Z,14.80
2023-04-20T08:17:16.210Z,16.40
2023-04-20T08:19:45.984Z,16.70
2023-04-20T08:22:13.987Z,14.90
2023-04-20T08:24:41.653Z,15.20
2023-04-20T08:27:09.402Z,13.90
2023-04-20T08:29:39.307Z,14.20
2023-04-20T08:32:09.202Z,14.90
2023-04-20T08:34:37.267Z,13.80
2023-04-20T08:37:05.288Z,13.50
2023-04-20T08:39:33.195Z,13.20
2023-04-20T08:42:02.285Z,12.70
2023-04-20T08:44:29.920Z,12.60
2023-04-20T08:46:58.002Z,13.60
2023-04-20T08:49:31.878Z,14.60
2023-04-20T08:51:59.589Z,15.30
2023-04-20T08:54:27.396Z,14.80
2023-04-20T08:56:55.324Z,13.20
2023-04-20T08:59:22.994Z,13.10
2023-04-20T09:01:50.746Z,14.60
2023-04-20T09:04:28.058Z,13.80
2023-04-20T09:06:56.716Z,13.70
2023-04-20T09:09:27.824Z,13.50
2023-04-20T09:12:06.781Z,13.70
2023-04-20T09:14:48.088Z,13.90
2023-04-20T09:17:18.134Z,10.90
2023-04-20T09:19:53.448Z,11.60
2023-04-20T09:22:33.745Z,10.30
2023-04-20T09:25:17.357Z,11.40
2023-04-20T09:28:02.717Z,11.60
2023-04-20T09:30:39.958Z,11.90
2023-04-20T09:33:08.716Z,11.50
2023-04-20T09:35:40.179Z,11.80
2023-04-20T09:38:09.605Z,11.20
2023-04-20T09:40:38.491Z,10.60
2023-04-20T09:43:19.898Z,10.50
2023-04-20T09:45:49.377Z,10.90
2023-04-20T09:48:19.787Z,9.90
2023-04-20T09:50:51.183Z,10.70
2023-04-20T09:53:20.546Z,9.00
2023-04-20T09:55:51.808Z,11.20
2023-04-20T09:58:21.635Z,9.20
2023-04-20T10:00:50.956Z,10.30
2023-04-20T10:03:20.376Z,9.10
2023-04-20T10:05:48.522Z,10.30
2023-04-20T10:08:16.818Z,8.70
2023-04-20T10:10:50.577Z,9.80
2023-04-20T10:13:23.309Z,8.80
2023-04-20T10:15:51.074Z,8.60
2023-04-20T10:18:23.843Z,9.80
2023-04-20T10:21:06.077Z,7.50
2023-04-20T10:23:33.894Z,7.10
2023-04-20T10:26:02.791Z,6.90
2023-04-20T10:28:42.974Z,8.20
2023-04-20T10:31:17.091Z,7.80
2023-04-20T10:33:54.682Z,7.60
2023-04-20T10:36:37.467Z,7.80
2023-04-20T10:39:23.243Z,7.50
2023-04-20T10:41:58.418Z,6.60
2023-04-20T10:44:26.379Z,7.20
2023-04-20T10:46:55.525Z,7.40
2023-04-20T10:49:28.977Z,6.40
2023-04-20T10:51:56.778Z,6.40
2023-04-20T10:54:24.567Z,7.10
2023-04-20T10:56:53.642Z,6.80
2023-04-20T10:59:24.974Z,6.60
2023-04-20T11:01:54.114Z,6.60
2023-04-20T11:04:32.718Z,6.30
2023-04-20T11:07:10.206Z,7.80
2023-04-20T11:09:42.397Z,9.00
2023-04-20T11:12:16.102Z,6.90
2023-04-20T11:15:02.967Z,7.10
2023-04-20T11:17:34.686Z,7.60
2023-04-20T11:20:11.193Z,8.40
2023-04-20T11:22:40.714Z,8.00
2023-04-20T11:25:11.286Z,8.10
2023-04-20T11:27:40.821Z,8.40
2023-04-20T11:30:10.035Z,7.90
2023-04-20T11:32:38.322Z,8.30
2023-04-20T11:35:10.997Z,8.30
2023-04-20T11:37:51.879Z,8.90
2023-04-20T11:40:20.265Z,9.70
2023-04-20T11:42:47.969Z,10.20
2023-04-20T11:45:16.152Z,8.70
2023-04-20T11:47:45.642Z,9.80
2023-04-20T11:50:14.391Z,9.00
2023-04-20T11:52:42.109Z,8.60
2023-04-20T11:55:11.400Z,8.10
2023-04-20T11:57:39.198Z,8.10
2023-04-20T12:00:08.516Z,9.00
2023-04-20T12:02:36.353Z,8.20
2023-04-20T12:05:04.741Z,7.70
2023-04-20T12:07:32.609Z,8.30
2023-04-20T12:10:00.249Z,8.10
2023-04-20T12:12:27.914Z,7.50
2023-04-20T12:14:55.644Z,5.30
2023-04-20T12:17:23.382Z,4.40
2023-04-20T12:19:51.098Z,6.40
2023-04-20T12:22:18.753Z,7.30
2023-04-20T12:24:46.406Z,6.20
2023-04-20T12:27:14.010Z,6.70
2023-04-20T12:29:41.680Z,8.00
2023-04-20T12:32:09.304Z,5.80
2023-04-20T12:34:36.900Z,8.10
2023-04-20T12:37:04.563Z,6.80
2023-04-20T12:39:32.836Z,6.00
2023-04-20T12:42:02.467Z,6.10
2023-04-20T12:44:30.895Z,5.50
2023-04-20T12:46:58.786Z,5.70
2023-04-20T12:49:26.651Z,4.70
2023-04-20T12:51:54.320Z,5.50
2023-04-20T12:54:22.078Z,5.20
2023-04-20T12:56:49.815Z,6.70
2023-04-20T12:59:17.583Z,6.30
2023-04-20T13:01:45.655Z,6.40
2023-04-20T13:04:16.551Z,4.80
2023-04-20T13:06:44.558Z,6.50
2023-04-20T13:09:12.926Z,4.40
2023-04-20T13:11:40.866Z,5.40
2023-04-20T13:14:08.525Z,4.70
2023-04-20T13:16:36.400Z,3.40
2023-04-20T13:19:04.096Z,3.70
2023-04-20T13:21:33.619Z,3.70
2023-04-20T13:24:01.397Z,4.10
2023-04-20T13:26:29.338Z,3.10
2023-04-20T13:28:58.478Z,2.50
2023-04-20T13:31:26.407Z,3.40
2023-04-20T13:33:55.038Z,2.50
2023-04-20T13:36:25.020Z,3.40
2023-04-20T13:38:53.696Z,3.90
2023-04-20T13:41:25.756Z,3.00
2023-04-20T13:43:53.484Z,2.90
2023-04-20T13:46:21.249Z,3.60
2023-04-20T13:48:48.999Z,3.40
2023-04-20T13:51:16.742Z,3.00
2023-04-20T13:53:44.486Z,2.50
2023-04-20T13:56:12.256Z,3.10
2023-04-20T13:58:40.032Z,2.70
2023-04-20T14:01:16.902Z,3.00
2023-04-20T14:03:44.843Z,3.10
2023-04-20T14:06:12.787Z,2.90
2023-04-20T14:08:40.552Z,2.90
2023-04-20T14:11:08.264Z,3.00
2023-04-20T14:13:37.667Z,3.30
2023-04-20T14:16:10.203Z,2.70
2023-04-20T14:18:39.211Z,2.90
2023-04-20T14:21:07.023Z,2.30
2023-04-20T14:23:34.754Z,2.50
2023-04-20T14:26:04.028Z,2.90
2023-04-20T14:28:33.384Z,3.40
2023-04-20T14:31:02.910Z,3.60
2023-04-20T14:33:30.830Z,4.00
2023-04-20T14:35:58.468Z,2.60
2023-04-20T14:38:26.364Z,2.80
2023-04-20T14:40:54.104Z,3.10
2023-04-20T14:43:22.212Z,2.70
2023-04-20T14:45:51.235Z,2.90
2023-04-20T14:48:19.069Z,2.50
2023-04-20T14:50:46.777Z,1.90
2023-04-20T14:53:14.427Z,2.50
2023-04-20T14:55:42.092Z,3.10
2023-04-20T14:58:10.335Z,2.90
2023-04-20T15:00:38.058Z,2.60
2023-04-20T15:03:05.949Z,1.90
2023-04-20T15:05:34.200Z,2.20
2023-04-20T15:08:02.020Z,2.10
2023-04-20T15:10:29.929Z,1.90
2023-04-20T15:12:57.563Z,2.20
2023-04-20T15:15:34.584Z,2.60
2023-04-20T15:18:09.754Z,2.30
2023-04-20T15:20:37.440Z,2.30
2023-04-20T15:23:05.828Z,2.10
2023-04-20T15:25:33.465Z,4.30
2023-04-20T15:28:01.058Z,3.70
2023-04-20T15:30:30.420Z,5.00
2023-04-20T15:33:05.390Z,6.10
2023-04-20T15:35:35.231Z,4.40
2023-04-20T15:38:03.509Z,4.30
2023-04-20T15:40:31.362Z,5.10
2023-04-20T15:42:59.002Z,4.60
2023-04-20T15:45:26.752Z,3.60
2023-04-20T15:47:55.878Z,3.70
2023-04-20T15:50:23.815Z,2.80
2023-04-20T15:52:54.665Z,3.30
2023-04-20T15:55:22.882Z,4.60
2023-04-20T15:57:50.520Z,3.30
2023-04-20T16:00:18.648Z,4.80
2023-04-20T16:02:46.469Z,3.20
2023-04-20T16:05:14.245Z,4.80
2023-04-20T16:07:41.967Z,3.40
2023-04-20T16:10:10.921Z,3.20
2023-04-20T16:12:38.592Z,5.30
2023-04-20T16:15:07.371Z,3.20
2023-04-20T16:17:35.153Z,3.60
2023-04-20T16:20:03.194Z,3.20
2023-04-20T16:22:31.066Z,5.30
2023-04-20T16:24:58.718Z,4.70
2023-04-20T16:27:27.500Z,3.80
2023-04-20T16:29:55.260Z,4.00
2023-04-20T16:32:22.954Z,5.50
2023-04-20T16:34:50.649Z,5.30
2023-04-20T16:37:18.382Z,4.90
2023-04-20T16:39:46.493Z,5.30
2023-04-20T16:42:14.235Z,5.40
2023-04-20T16:44:42.082Z,4.90
2023-04-20T16:47:09.894Z,4.20
2023-04-20T16:49:37.654Z,5.50
2023-04-20T16:52:05.387Z,5.00
2023-04-20T16:54:33.052Z,4.40
2023-04-20T16:57:01.470Z,4.90
2023-04-20T16:59:29.212Z,3.80
2023-04-20T17:01:56.920Z,4.30
2023-04-20T17:04:25.201Z,3.90
2023-04-20T17:06:53.465Z,4.50
2023-04-20T17:09:22.907Z,6.10
2023-04-20T17:11:50.646Z,5.40
2023-04-20T17:14:18.680Z,5.50
2023-04-20T17:16:47.510Z,5.80
2023-04-20T17:19:15.612Z,5.80
2023-04-20T17:21:45.156Z,6.30
2023-04-20T17:24:13.539Z,5.80
2023-04-20T17:26:41.395Z,5.50
2023-04-20T17:29:09.142Z,4.50
2023-04-20T17:31:36.799Z,4.60
2023-04-20T17:34:04.527Z,4.80
2023-04-20T17:36:33.536Z,5.30
2023-04-20T17:39:01.257Z,4.50
2023-04-20T17:41:29.137Z,4.80
2023-04-20T17:43:56.818Z,5.60
2023-04-20T17:46:25.800Z,6.20
2023-04-20T17:48:54.130Z,8.00
2023-04-20T17:51:21.880Z,12.90
2023-04-20T17:53:49.491Z,12.90
2023-04-20T17:56:17.297Z,11.40
2023-04-20T17:58:46.578Z,11.20
2023-04-20T18:01:14.558Z,11.10
2023-04-20T18:03:42.366Z,12.10
2023-04-20T18:06:10.952Z,13.10
2023-04-20T18:08:38.680Z,14.70
2023-04-20T18:11:06.517Z,16.40
2023-04-20T18:13:34.175Z,16.90
2023-04-20T18:16:06.893Z,17.60
2023-04-20T18:18:35.372Z,22.40
2023-04-20T18:21:04.336Z,21.70
2023-04-20T18:23:32.841Z,22.70
2023-04-20T18:26:00.458Z,19.10
2023-04-20T18:28:28.076Z,18.50
2023-04-20T18:30:57.754Z,17.70
2023-04-20T18:33:27.454Z,19.60
2023-04-20T18:35:55.430Z,19.90
2023-04-20T18:38:23.113Z,17.40
2023-04-20T18:40:50.859Z,11.50
2023-04-20T18:43:18.534Z,10.00
2023-04-20T18:45:46.402Z,7.20
2023-04-20T18:48:14.106Z,6.60
2023-04-20T18:50:41.759Z,6.50
2023-04-20T18:53:09.395Z,5.90
2023-04-20T18:55:37.958Z,5.00
2023-04-20T18:58:05.746Z,5.40
2023-04-20T19:00:33.833Z,6.00
2023-04-20T19:03:01.742Z,5.30
2023-04-20T19:05:30.821Z,5.70
2023-04-20T19:07:58.504Z,6.60
2023-04-20T19:10:26.646Z,5.80
2023-04-20T19:12:55.715Z,5.60
2023-04-20T19:15:25.938Z,5.50
2023-04-20T19:17:56.282Z,6.60
2023-04-20T19:20:25.395Z,5.90
2023-04-20T19:22:53.143Z,5.70
2023-04-20T19:25:21.286Z,6.40
2023-04-20T19:27:49.006Z,7.50
2023-04-20T19:30:16.845Z,7.00
2023-04-20T19:32:44.595Z,6.90
2023-04-20T19:35:12.307Z,7.20
2023-04-20T19:37:41.259Z,7.70
2023-04-20T19:40:09.313Z,7.70
2023-04-20T19:42:36.965Z,7.70
2023-04-20T19:45:05.260Z,8.50
2023-04-20T19:47:33.031Z,8.90
2023-04-20T19:50:03.659Z,9.80
2023-04-20T19:52:34.376Z,10.00
2023-04-20T19:55:03.597Z,8.40
2023-04-20T19:57:31.759Z,8.40
2023-04-20T19:59:59.753Z,9.70
2023-04-20T20:02:27.505Z,9.50
2023-04-20T20:04:55.552Z,10.20
2023-04-20T20:07:23.191Z,9.70
2023-04-20T20:09:50.748Z,8.80
2023-04-20T20:12:18.421Z,9.20
2023-04-20T20:14:46.108Z,8.10
2023-04-20T20:17:13.811Z,8.40
2023-04-20T20:19:43.212Z,8.10
2023-04-20T20:22:11.006Z,8.90
2023-04-20T20:24:38.719Z,8.70
2023-04-20T20:27:06.428Z,8.30
2023-04-20T20:29:34.069Z,9.40
2023-04-20T20:32:02.245Z,10.70
2023-04-20T20:34:29.811Z,10.40
2023-04-20T20:36:58.748Z,10.50
2023-04-20T20:39:26.540Z,11.30
2023-04-20T20:41:54.520Z,12.20
2023-04-20T20:44:22.979Z,12.20
2023-04-20T20:46:50.727Z,13.70
2023-04-20T20:49:18.648Z,12.60
2023-04-20T20:51:46.602Z,12.30
2023-04-20T20:54:14.248Z,12.80
2023-04-20T20:56:43.698Z,12.20
2023-04-20T20:59:11.332Z,11.30
2023-04-20T21:01:39.492Z,11.30
2023-04-20T21:04:07.319Z,12.00
2023-04-20T21:06:35.322Z,11.10
2023-04-20T21:09:03.189Z,11.80
2023-04-20T21:11:30.900Z,12.10
2023-04-20T21:14:01.928Z,11.60
2023-04-20T21:16:29.981Z,12.30
2023-04-20T21:18:57.680Z,13.20
2023-04-20T21:21:25.322Z,14.20
2023-04-20T21:23:52.968Z,13.50
2023-04-20T21:26:20.640Z,13.70
2023-04-20T21:28:48.243Z,16.70
2023-04-20T21:31:15.871Z,16.90
2023-04-20T21:33:44.063Z,15.30
2023-04-20T21:36:11.713Z,17.00
2023-04-20T21:38:39.391Z,16.20
2023-04-20T21:41:07.117Z,17.60
2023-04-20T21:43:34.700Z,17.20
2023-04-20T21:46:02.379Z,17.80
2023-04-20T21:48:30.230Z,17.20
2023-04-20T21:50:57.954Z,17.00
2023-04-20T21:53:25.704Z,17.60
2023-04-20T21:55:53.414Z,17.50
2023-04-20T21:58:21.011Z,18.10
2023-04-20T22:00:50.762Z,16.00
2023-04-20T22:03:18.639Z,14.50
2023-04-20T22:05:46.467Z,14.70
2023-04-20T22:08:15.232Z,13.20
2023-04-20T22:10:42.902Z,11.50
2023-04-20T22:13:10.559Z,12.20
2023-04-20T22:15:38.174Z,12.10
2023-04-20T22:18:05.906Z,11.30
2023-04-20T22:20:33.741Z,11.70
2023-04-20T22:23:01.424Z,10.80
2023-04-20T22:25:29.098Z,12.40
2023-04-20T22:27:57.147Z,14.80
2023-04-20T22:30:24.800Z,12.10
2023-04-20T22:32:52.478Z,10.70
2023-04-20T22:35:20.356Z,11.40
2023-04-20T22:37:48.022Z,12.30
2023-04-20T22:40:15.786Z,12.00
2023-04-20T22:42:43.536Z,13.20
2023-04-20T22:45:11.805Z,12.70
2023-04-20T22:47:39.834Z,11.80
2023-04-20T22:50:09.707Z,11.90
2023-04-20T22:52:38.629Z,11.90
2023-04-20T22:55:08.981Z,11.50
2023-04-20T22:57:39.092Z,10.70
2023-04-20T23:00:10.664Z,11.10
2023-04-20T23:02:38.860Z,12.00
2023-04-20T23:05:07.306Z,13.80
2023-04-20T23:07:35.906Z,15.00
2023-04-20T23:10:04.615Z,14.60
2023-04-20T23:12:33.390Z,12.20
2023-04-20T23:15:01.427Z,14.10
2023-04-20T23:17:29.409Z,14.20
2023-04-20T23:19:57.184Z,13.80
2023-04-20T23:22:24.790Z,14.00
2023-04-20T23:24:52.471Z,13.80
2023-04-20T23:27:20.116Z,14.40
2023-04-20T23:29:48.027Z,13.10
2023-04-20T23:32:15.756Z,13.90
2023-04-20T23:34:43.376Z,14.60
2023-04-20T23:37:11.514Z,12.00
2023-04-20T23:39:39.237Z,12.70
2023-04-20T23:42:06.901Z,12.40
2023-04-20T23:44:34.923Z,12.90
2023-04-20T23:47:02.602Z,12.20
2023-04-20T23:49:30.310Z,11.70
2023-04-20T23:51:57.946Z,12.50
2023-04-20T23:54:25.530Z,12.20
2023-04-20T23:56:55.195Z,12.70
2023-04-20T23:59:23.244Z,12.20
